Terminal Aerodrome Forecast
Issued by NWS Mt. Holly, NJ

Home | Current Version | Previous Version | Text Only | Print | Product List | Glossary On
Versions: 1 2 3 4 5 6 7 8 9 10 11 12 13 14 15 16 17 18 19
000
FTUS41 KPHI 172300
TAFRDG
TAF
KRDG 172320Z 1800/1824 VRB02KT P6SM FEW050
      TEMPO 1809/1811 5SM BR
     FM181500 32006KT P6SM FEW050
     FM182300 32003KT P6SM SKC=

USA.gov is the U.S. government's official web portal to all federal, state and local government web resources and services.